Time;durP1;ratioP1;P1;durP2;ratioP2;P2;SDS_P1;SDS_P2;PMS_P1;PMS_P2;Temp;Humidity;BMP_temperature;BMP_pressure;BME280_temperature;BME280_humidity;BME280_pressure;Samples;Min_cycle;Max_cycle;Signal;HPM_P1;HPM_P2
2022/10/23 00:00:32;;;;;;;12.48;7.63;;;14.50;84.80;;;;;;5023221;28;20021;-65
2022/10/23 00:02:58;;;;;;;13.05;8.10;;;14.50;84.70;;;;;;5027839;28;20497;-65
2022/10/23 00:05:25;;;;;;;14.43;7.40;;;14.50;84.70;;;;;;5034680;28;20355;-65
2022/10/23 00:07:56;;;;;;;11.75;7.38;;;14.50;84.70;;;;;;5032044;28;20029;-65
2022/10/23 00:10:23;;;;;;;9.52;6.95;;;14.50;84.70;;;;;;5023298;28;20034;-65
2022/10/23 00:12:49;;;;;;;10.70;7.10;;;14.40;84.60;;;;;;5014671;28;20427;-64
2022/10/23 00:15:18;;;;;;;11.55;7.03;;;14.40;84.60;;;;;;5010337;28;20025;-64
2022/10/23 00:17:44;;;;;;;12.45;6.97;;;14.40;84.60;;;;;;5028953;28;20478;-64
2022/10/23 00:20:10;;;;;;;11.75;7.03;;;14.40;84.70;;;;;;5026996;28;20034;-64
2022/10/23 00:22:37;;;;;;;12.30;7.22;;;14.40;84.60;;;;;;5014313;28;20037;-64
2022/10/23 00:25:04;;;;;;;12.45;7.30;;;14.40;84.60;;;;;;5024575;28;20032;-64
2022/10/23 00:27:30;;;;;;;14.05;7.80;;;14.40;84.70;;;;;;5025480;28;20514;-64
2022/10/23 00:29:55;;;;;;;14.48;7.45;;;14.30;84.60;;;;;;5017659;28;20117;-64
2022/10/23 00:32:21;;;;;;;10.85;7.30;;;14.40;84.60;;;;;;5014383;28;20121;-64
2022/10/23 00:34:47;;;;;;;12.73;7.72;;;14.30;84.60;;;;;;5018063;28;20036;-64
2022/10/23 00:37:12;;;;;;;12.88;8.25;;;14.30;84.60;;;;;;5016158;28;20034;-64
2022/10/23 00:39:38;;;;;;;10.65;7.57;;;14.30;84.60;;;;;;5022051;28;20042;-64
2022/10/23 00:42:04;;;;;;;11.68;7.22;;;14.30;84.60;;;;;;5012543;28;20469;-64
2022/10/23 00:44:29;;;;;;;11.30;7.32;;;14.30;84.60;;;;;;5019419;28;20026;-64
2022/10/23 00:46:55;;;;;;;11.82;7.15;;;14.30;84.50;;;;;;4997138;28;20056;-64
2022/10/23 00:49:21;;;;;;;12.35;7.72;;;14.30;84.50;;;;;;5028807;28;20036;-64
2022/10/23 00:51:54;;;;;;;14.55;7.95;;;14.30;84.50;;;;;;5014400;28;20056;-64
2022/10/23 00:54:24;;;;;;;13.40;7.88;;;14.20;84.50;;;;;;5017062;28;20029;-64
2022/10/23 00:56:51;;;;;;;11.45;7.53;;;14.20;84.50;;;;;;5013357;28;20593;-64
2022/10/23 00:59:17;;;;;;;16.42;7.40;;;14.20;84.50;;;;;;5044852;28;20026;-64
2022/10/23 01:01:43;;;;;;;14.57;8.20;;;14.20;84.50;;;;;;5022235;28;20037;-64
2022/10/23 01:04:09;;;;;;;12.93;7.70;;;14.20;85.20;;;;;;5028409;28;20038;-64
2022/10/23 01:07:06;;;;;;;10.00;7.35;;;14.20;84.50;;;;;;5014395;28;20032;-64
2022/10/23 01:09:41;;;;;;;10.70;6.82;;;14.20;84.50;;;;;;5028407;28;20439;-64
2022/10/23 01:12:07;;;;;;;11.90;7.20;;;14.20;84.50;;;;;;5013477;28;20095;-64
2022/10/23 01:14:33;;;;;;;13.50;7.30;;;14.20;84.50;;;;;;5028834;28;20495;-64
2022/10/23 01:17:04;;;;;;;12.20;7.03;;;14.10;84.50;;;;;;5015544;28;20029;-65
2022/10/23 01:19:58;;;;;;;11.52;6.97;;;14.20;84.50;;;;;;5032878;28;20413;-64
2022/10/23 01:22:45;;;;;;;10.38;7.18;;;14.20;84.50;;;;;;5023675;28;20034;-64
2022/10/23 01:25:20;;;;;;;13.25;7.80;;;14.10;84.40;;;;;;5019500;28;20076;-64
2022/10/23 01:27:51;;;;;;;11.73;6.90;;;14.10;84.50;;;;;;5001781;28;20033;-64
2022/10/23 01:30:17;;;;;;;12.27;7.38;;;14.20;84.60;;;;;;5033244;28;20050;-64
2022/10/23 01:32:54;;;;;;;9.90;6.38;;;14.20;84.50;;;;;;5024584;28;20069;-64
2022/10/23 01:35:30;;;;;;;12.68;7.28;;;14.10;84.50;;;;;;5019593;28;20053;-64
2022/10/23 01:38:14;;;;;;;12.35;7.03;;;14.10;84.50;;;;;;5029522;28;20032;-64
2022/10/23 01:40:49;;;;;;;10.30;6.88;;;14.10;84.50;;;;;;5031048;28;20096;-64
2022/10/23 01:43:29;;;;;;;15.35;7.45;;;14.10;84.50;;;;;;5019240;28;20413;-65
2022/10/23 01:46:03;;;;;;;10.65;6.68;;;14.10;84.50;;;;;;5024856;28;20391;-64
2022/10/23 01:48:32;;;;;;;13.55;7.68;;;14.10;84.50;;;;;;5028466;28;20021;-64
2022/10/23 01:51:04;;;;;;;10.43;6.45;;;14.10;84.50;;;;;;5035115;28;20063;-65
2022/10/23 01:53:37;;;;;;;10.85;7.25;;;14.10;84.50;;;;;;5030386;28;20029;-64
2022/10/23 01:56:09;;;;;;;12.43;6.70;;;14.10;84.60;;;;;;5022324;28;20451;-64
2022/10/23 01:58:35;;;;;;;11.38;6.90;;;14.00;84.50;;;;;;5027501;28;20061;-64
2022/10/23 02:01:04;;;;;;;11.40;7.28;;;14.00;84.50;;;;;;5019725;28;20026;-64
2022/10/23 02:03:34;;;;;;;11.57;6.82;;;14.00;84.60;;;;;;5004852;28;20038;-64
2022/10/23 02:06:00;;;;;;;12.15;7.05;;;14.00;84.50;;;;;;5022927;28;20021;-65
2022/10/23 02:08:26;;;;;;;12.90;7.38;;;14.00;84.50;;;;;;5026902;28;20041;-64
2022/10/23 02:11:07;;;;;;;9.95;7.15;;;14.00;84.60;;;;;;5037105;28;20029;-64
2022/10/23 02:13:48;;;;;;;10.80;6.95;;;14.00;84.50;;;;;;5014982;28;20037;-64
2022/10/23 02:16:35;;;;;;;12.02;6.80;;;14.00;84.60;;;;;;5015413;28;20129;-64
2022/10/23 02:19:06;;;;;;;11.98;7.00;;;14.00;84.50;;;;;;5015814;28;20378;-64
2022/10/23 02:21:47;;;;;;;11.15;6.78;;;14.00;84.60;;;;;;5032937;28;20021;-64
2022/10/23 02:24:16;;;;;;;10.90;7.20;;;14.00;84.60;;;;;;5016423;28;20124;-64
2022/10/23 02:26:54;;;;;;;13.70;7.53;;;14.00;84.60;;;;;;5015338;28;20025;-64
2022/10/23 02:29:34;;;;;;;9.93;6.18;;;14.00;84.60;;;;;;5016787;28;20332;-64
2022/10/23 02:32:01;;;;;;;10.02;6.68;;;14.00;84.60;;;;;;5013884;28;20018;-64
2022/10/23 02:34:26;;;;;;;13.32;7.25;;;14.00;84.60;;;;;;5012337;28;20030;-64
2022/10/23 02:36:53;;;;;;;11.75;6.55;;;14.00;84.60;;;;;;5014108;28;20025;-64
2022/10/23 02:39:23;;;;;;;10.57;7.18;;;14.00;84.60;;;;;;5015050;28;20045;-65
2022/10/23 02:42:05;;;;;;;11.55;6.90;;;14.00;84.60;;;;;;5011403;28;20025;-65
2022/10/23 02:44:49;;;;;;;10.38;6.63;;;14.00;84.60;;;;;;5015353;28;20501;-65
2022/10/23 02:47:33;;;;;;;9.77;5.97;;;14.00;84.50;;;;;;5010529;28;20034;-65
2022/10/23 02:50:43;;;;;;;11.68;6.78;;;14.00;84.50;;;;;;5032329;28;20021;-64
2022/10/23 02:53:42;;;;;;;10.80;6.50;;;14.00;84.50;;;;;;5016698;28;20028;-65
2022/10/23 02:56:29;;;;;;;13.98;6.78;;;13.90;84.50;;;;;;5013715;28;20034;-64
2022/10/23 02:59:13;;;;;;;10.38;6.68;;;13.80;84.40;;;;;;5015015;28;20022;-65
2022/10/23 03:01:49;;;;;;;10.43;6.28;;;13.80;84.40;;;;;;5012454;28;20023;-65
2022/10/23 03:04:17;;;;;;;11.35;7.00;;;13.80;84.40;;;;;;5011739;28;20092;-65
2022/10/23 03:06:43;;;;;;;9.07;6.25;;;13.80;84.40;;;;;;5014868;28;20017;-65
2022/10/23 03:09:14;;;;;;;10.75;6.15;;;13.80;84.40;;;;;;5014121;28;20026;-65
2022/10/23 03:11:39;;;;;;;12.30;6.60;;;13.80;84.40;;;;;;5016376;28;20018;-65
2022/10/23 03:14:05;;;;;;;12.85;7.00;;;13.80;84.40;;;;;;5018576;28;20057;-65
2022/10/23 03:16:31;;;;;;;9.18;6.28;;;13.80;84.60;;;;;;5014815;28;20061;-65
2022/10/23 03:18:57;;;;;;;12.45;6.60;;;13.80;84.60;;;;;;5014882;28;20104;-65
2022/10/23 03:21:23;;;;;;;10.43;6.60;;;13.80;84.50;;;;;;5012454;28;20057;-65
2022/10/23 03:23:51;;;;;;;10.05;6.90;;;13.80;84.50;;;;;;5008078;28;20030;-65
2022/10/23 03:26:22;;;;;;;12.27;6.82;;;13.80;84.50;;;;;;5008786;28;20069;-65
2022/10/23 03:28:48;;;;;;;11.15;6.32;;;13.80;84.50;;;;;;5007993;28;20045;-65
2022/10/23 03:31:15;;;;;;;13.00;6.80;;;13.80;84.50;;;;;;5011917;28;20022;-65
2022/10/23 03:33:42;;;;;;;10.23;6.20;;;13.80;84.50;;;;;;5013573;28;20040;-65
2022/10/23 03:36:10;;;;;;;11.77;7.00;;;13.90;84.60;;;;;;5004367;28;20096;-65
2022/10/23 03:38:36;;;;;;;9.38;6.32;;;13.80;84.50;;;;;;5015175;28;20466;-64
2022/10/23 03:41:03;;;;;;;10.55;6.57;;;13.80;85.10;;;;;;5011423;28;20473;-65
2022/10/23 03:43:28;;;;;;;11.98;6.47;;;13.80;84.50;;;;;;5009465;28;20041;-65
2022/10/23 03:45:57;;;;;;;11.40;6.90;;;13.80;84.60;;;;;;5013910;28;20110;-64
2022/10/23 03:48:24;;;;;;;9.52;5.38;;;13.80;84.50;;;;;;5014625;28;20121;-65
2022/10/23 03:50:51;;;;;;;10.95;5.50;;;13.80;84.60;;;;;;5014254;28;20025;-65
2022/10/23 03:53:16;;;;;;;9.60;5.75;;;13.80;84.60;;;;;;4994421;28;20034;-64
2022/10/23 03:55:43;;;;;;;11.73;6.72;;;13.80;84.60;;;;;;4995951;28;20033;-65
2022/10/23 03:58:09;;;;;;;9.68;5.82;;;13.90;84.70;;;;;;5014908;28;20045;-65
2022/10/23 04:00:35;;;;;;;8.88;5.78;;;13.80;84.60;;;;;;5011875;28;20030;-64
2022/10/23 04:03:00;;;;;;;10.07;6.00;;;13.80;84.70;;;;;;5011081;28;20367;-65
2022/10/23 04:05:26;;;;;;;11.32;6.13;;;13.90;84.70;;;;;;5008162;28;20021;-65
2022/10/23 04:07:55;;;;;;;9.90;6.32;;;13.90;84.70;;;;;;5009010;28;20033;-64
2022/10/23 04:10:21;;;;;;;10.45;6.20;;;13.90;84.80;;;;;;5007204;28;20022;-65
2022/10/23 04:12:46;;;;;;;15.68;6.10;;;13.90;84.80;;;;;;5014961;28;20431;-64
2022/10/23 04:15:12;;;;;;;10.77;5.30;;;13.90;84.80;;;;;;5007460;28;20034;-64
2022/10/23 04:17:40;;;;;;;11.13;6.18;;;13.90;84.80;;;;;;4991876;28;20062;-64
2022/10/23 04:20:06;;;;;;;12.98;5.78;;;13.90;84.90;;;;;;5018127;28;20041;-65
2022/10/23 04:22:32;;;;;;;9.13;5.50;;;13.90;84.90;;;;;;5000208;28;20026;-65
2022/10/23 04:24:57;;;;;;;10.68;5.63;;;13.90;85.00;;;;;;4998566;28;20523;-65
2022/10/23 04:27:23;;;;;;;8.63;5.25;;;13.90;85.00;;;;;;5001722;28;20052;-65
2022/10/23 04:29:49;;;;;;;11.85;5.85;;;13.90;85.00;;;;;;5015886;28;20351;-64
2022/10/23 04:32:15;;;;;;;10.40;5.28;;;14.00;85.00;;;;;;5013673;28;20037;-64
2022/10/23 04:34:42;;;;;;;9.73;5.55;;;14.00;85.00;;;;;;5012276;28;20049;-65
2022/10/23 04:37:08;;;;;;;10.25;5.50;;;14.00;85.10;;;;;;5013984;28;20037;-65
2022/10/23 04:39:34;;;;;;;11.45;5.75;;;14.00;85.10;;;;;;5014501;28;20042;-64
2022/10/23 04:42:00;;;;;;;11.60;6.00;;;14.00;85.10;;;;;;5010143;28;20033;-64
2022/10/23 04:44:25;;;;;;;10.80;5.43;;;14.00;85.10;;;;;;5021702;28;20037;-65
2022/10/23 04:46:51;;;;;;;9.60;5.88;;;14.00;85.20;;;;;;5021000;28;20064;-65
2022/10/23 04:49:17;;;;;;;8.60;5.63;;;14.00;85.20;;;;;;5014766;28;20066;-65
2022/10/23 04:52:14;;;;;;;9.48;5.70;;;14.00;85.20;;;;;;5007861;28;20107;-65
2022/10/23 04:55:09;;;;;;;9.32;5.55;;;14.00;85.30;;;;;;4957084;28;20086;-65
2022/10/23 04:57:43;;;;;;;12.55;5.90;;;14.00;85.30;;;;;;4940963;29;20050;-66
2022/10/23 05:00:12;;;;;;;9.82;5.10;;;14.00;85.30;;;;;;4944572;28;20043;-66
2022/10/23 05:02:43;;;;;;;11.27;5.68;;;14.00;85.40;;;;;;4947974;28;20046;-66
2022/10/23 05:05:09;;;;;;;9.52;4.93;;;14.00;85.40;;;;;;4945641;28;20046;-66
2022/10/23 05:07:51;;;;;;;9.38;5.20;;;14.00;85.40;;;;;;4942378;29;20031;-65
2022/10/23 05:10:37;;;;;;;10.15;5.43;;;14.00;85.50;;;;;;4950683;28;20135;-66
2022/10/23 05:13:08;;;;;;;11.15;6.03;;;14.00;85.50;;;;;;4958583;28;20463;-66
2022/10/23 05:15:33;;;;;;;10.50;5.57;;;14.00;85.50;;;;;;4948156;29;20051;-66
2022/10/23 05:18:07;;;;;;;10.50;6.00;;;14.00;86.20;;;;;;4952602;28;20047;-66
2022/10/23 05:20:35;;;;;;;8.07;5.35;;;14.00;85.50;;;;;;4957523;29;20460;-66
2022/10/23 05:23:04;;;;;;;11.15;5.10;;;14.00;85.60;;;;;;4950695;28;20468;-65
2022/10/23 05:25:30;;;;;;;10.15;5.28;;;14.00;85.60;;;;;;4942441;29;20031;-66
2022/10/23 05:28:08;;;;;;;9.30;5.03;;;14.00;85.70;;;;;;4947609;28;20040;-65
2022/10/23 05:30:33;;;;;;;9.82;4.82;;;14.00;85.60;;;;;;4945418;28;20115;-66
2022/10/23 05:33:01;;;;;;;8.63;4.75;;;14.10;85.70;;;;;;5025538;28;20053;-66
2022/10/23 05:35:29;;;;;;;12.63;4.88;;;14.00;85.70;;;;;;5014337;28;20030;-66
2022/10/23 05:37:57;;;;;;;11.05;4.97;;;14.00;85.70;;;;;;5020241;28;20120;-66
2022/10/23 05:40:24;;;;;;;11.45;5.53;;;14.00;85.80;;;;;;5016518;28;20033;-66
2022/10/23 05:42:56;;;;;;;11.23;5.13;;;14.10;85.90;;;;;;5014236;28;20038;-66
2022/10/23 05:45:35;;;;;;;11.05;4.78;;;14.10;85.90;;;;;;5013670;28;20451;-66
2022/10/23 05:48:20;;;;;;;9.73;4.90;;;14.10;86.00;;;;;;5003872;28;20026;-66
2022/10/23 05:51:09;;;;;;;9.95;4.68;;;14.10;85.90;;;;;;5016835;28;20096;-66
2022/10/23 05:53:44;;;;;;;8.88;5.18;;;14.10;85.90;;;;;;5017704;28;20057;-66
2022/10/23 05:56:29;;;;;;;10.10;5.35;;;14.10;86.00;;;;;;5019790;28;20076;-67
2022/10/23 05:59:17;;;;;;;10.00;5.20;;;14.20;86.00;;;;;;5015217;28;20026;-67
2022/10/23 06:02:08;;;;;;;9.32;5.20;;;14.20;86.00;;;;;;5031765;28;20034;-67
2022/10/23 06:04:49;;;;;;;12.15;4.88;;;14.20;86.00;;;;;;5014966;28;20331;-67
2022/10/23 06:07:28;;;;;;;11.10;5.13;;;14.30;86.00;;;;;;5014827;28;20387;-67
2022/10/23 06:09:55;;;;;;;10.00;5.00;;;14.30;86.10;;;;;;5001238;28;20033;-67
2022/10/23 06:12:21;;;;;;;10.73;4.90;;;14.30;86.10;;;;;;5015956;28;20030;-66
2022/10/23 06:14:49;;;;;;;9.05;4.80;;;14.30;86.00;;;;;;5012183;28;20498;-66
2022/10/23 06:17:15;;;;;;;10.02;5.30;;;14.40;86.00;;;;;;5015491;28;20061;-66
2022/10/23 06:19:44;;;;;;;10.00;5.10;;;14.40;86.10;;;;;;5014454;28;20017;-67
2022/10/23 06:22:10;;;;;;;10.18;5.13;;;14.40;86.00;;;;;;5018237;28;20034;-65
2022/10/23 06:24:46;;;;;;;10.98;5.10;;;14.40;86.00;;;;;;5014616;28;20042;-65
2022/10/23 06:27:15;;;;;;;10.63;5.20;;;14.40;86.10;;;;;;5012958;28;20038;-65
2022/10/23 06:29:42;;;;;;;12.48;4.38;;;14.40;86.10;;;;;;5015474;28;20018;-65
2022/10/23 06:32:08;;;;;;;10.40;5.07;;;14.40;86.10;;;;;;5016310;28;20037;-65
2022/10/23 06:34:34;;;;;;;8.75;4.97;;;14.50;86.20;;;;;;5012555;28;20065;-66
2022/10/23 06:37:00;;;;;;;9.02;5.18;;;14.50;86.10;;;;;;5017406;28;20679;-65
2022/10/23 06:39:34;;;;;;;10.60;5.10;;;14.50;86.10;;;;;;5015020;28;20329;-67
2022/10/23 06:42:10;;;;;;;10.02;5.43;;;14.50;86.20;;;;;;5012643;28;20018;-65
2022/10/23 06:44:55;;;;;;;9.63;4.65;;;14.50;86.10;;;;;;5015602;28;20116;-66
2022/10/23 06:47:53;;;;;;;10.45;5.35;;;14.50;86.10;;;;;;4997692;28;20173;-67
2022/10/23 06:50:38;;;;;;;10.35;4.90;;;14.50;86.10;;;;;;5014738;28;20068;-68
2022/10/23 06:53:11;;;;;;;11.07;5.03;;;14.50;86.10;;;;;;5002288;28;20458;-65
2022/10/23 06:55:39;;;;;;;11.60;5.38;;;14.60;86.10;;;;;;5014099;28;20034;-65
2022/10/23 06:58:09;;;;;;;12.00;5.28;;;14.60;86.10;;;;;;4997887;28;20520;-66
2022/10/23 07:00:37;;;;;;;10.40;5.43;;;14.60;86.10;;;;;;4996832;28;20062;-66
2022/10/23 07:03:03;;;;;;;8.68;4.80;;;14.60;86.10;;;;;;5004716;28;20057;-66
2022/10/23 07:05:29;;;;;;;9.93;4.78;;;14.60;86.10;;;;;;5009487;28;20029;-67
2022/10/23 07:07:55;;;;;;;11.45;5.15;;;14.60;86.10;;;;;;4997928;28;20363;-67
2022/10/23 07:10:25;;;;;;;13.65;5.78;;;14.70;86.20;;;;;;4999208;28;20038;-67
2022/10/23 07:12:59;;;;;;;10.65;5.72;;;14.60;86.10;;;;;;5006543;28;20037;-67
2022/10/23 07:15:48;;;;;;;8.93;4.90;;;14.80;85.80;;;;;;5006399;28;20103;-67
2022/10/23 07:18:20;;;;;;;8.82;4.72;;;14.80;85.60;;;;;;4982789;28;20055;-65
2022/10/23 07:21:06;;;;;;;11.63;5.53;;;14.80;85.70;;;;;;4990210;28;20120;-66
2022/10/23 07:23:33;;;;;;;12.55;5.75;;;14.80;85.80;;;;;;4992181;28;20130;-66
2022/10/23 07:26:14;;;;;;;11.55;6.00;;;14.80;85.90;;;;;;4975584;28;20460;-66
2022/10/23 07:28:40;;;;;;;11.30;6.40;;;14.80;86.00;;;;;;4986753;28;20076;-67
2022/10/23 07:31:07;;;;;;;12.90;6.68;;;14.80;86.10;;;;;;4986089;28;20035;-66
2022/10/23 07:34:02;;;;;;;10.57;6.18;;;14.80;86.10;;;;;;4965782;28;20042;-66
2022/10/23 07:36:28;;;;;;;9.32;5.57;;;14.80;86.20;;;;;;4948800;28;20023;-66
2022/10/23 07:38:54;;;;;;;12.23;5.90;;;14.80;86.20;;;;;;4972848;28;20028;-66
2022/10/23 07:41:20;;;;;;;13.30;6.00;;;14.80;86.30;;;;;;4945397;29;20070;-67
2022/10/23 07:43:46;;;;;;;11.43;5.70;;;14.80;86.30;;;;;;4957868;28;20391;-66
2022/10/23 07:46:11;;;;;;;11.43;6.15;;;14.80;86.20;;;;;;4960807;28;20032;-67
2022/10/23 07:48:39;;;;;;;10.38;5.32;;;14.90;86.30;;;;;;4958144;28;20613;-66
2022/10/23 07:51:09;;;;;;;9.45;4.80;;;14.90;86.30;;;;;;4966266;28;20456;-66
2022/10/23 07:53:39;;;;;;;10.35;5.25;;;14.90;86.30;;;;;;4966508;28;20031;-67
2022/10/23 07:56:28;;;;;;;12.35;5.72;;;14.90;86.30;;;;;;4958685;28;20600;-67
2022/10/23 07:59:13;;;;;;;12.88;4.70;;;15.00;86.30;;;;;;4963370;28;20042;-65
2022/10/23 08:01:41;;;;;;;10.07;4.50;;;15.00;86.20;;;;;;4961982;28;20456;-65
2022/10/23 08:04:09;;;;;;;10.65;5.53;;;15.00;86.90;;;;;;4961466;28;20031;-66
2022/10/23 08:06:40;;;;;;;10.80;5.60;;;15.00;86.30;;;;;;4971002;28;20023;-67
2022/10/23 08:09:06;;;;;;;10.65;5.22;;;15.00;86.20;;;;;;4965186;28;20041;-65
2022/10/23 08:11:34;;;;;;;11.15;5.40;;;15.00;86.20;;;;;;4958097;28;20503;-66
2022/10/23 08:14:03;;;;;;;10.57;5.40;;;15.10;86.30;;;;;;4964460;28;20033;-66
2022/10/23 08:16:31;;;;;;;12.20;5.40;;;15.10;86.30;;;;;;4971648;28;20027;-66
2022/10/23 08:19:06;;;;;;;10.85;5.90;;;15.10;86.30;;;;;;4992280;28;20495;-65
2022/10/23 08:21:33;;;;;;;12.00;5.70;;;15.10;86.30;;;;;;4978819;28;20023;-66
2022/10/23 08:24:00;;;;;;;10.60;5.32;;;15.10;86.30;;;;;;5016399;28;20026;-66
2022/10/23 08:26:28;;;;;;;13.07;5.45;;;15.20;86.30;;;;;;5010904;28;20058;-65
2022/10/23 08:28:54;;;;;;;9.43;5.05;;;15.20;86.30;;;;;;4996358;28;20164;-66
2022/10/23 08:31:21;;;;;;;9.50;5.22;;;15.20;86.30;;;;;;5017371;28;20045;-65
2022/10/23 08:34:06;;;;;;;13.32;5.25;;;15.20;87.00;;;;;;4995805;28;20057;-65
2022/10/23 08:36:32;;;;;;;11.18;4.88;;;15.20;86.30;;;;;;5001441;28;20049;-65
2022/10/23 08:38:58;;;;;;;10.00;4.95;;;15.20;86.30;;;;;;4998498;28;20096;-65
2022/10/23 08:41:25;;;;;;;11.75;5.20;;;15.30;86.30;;;;;;4997595;28;20030;-66
2022/10/23 08:44:19;;;;;;;8.05;3.75;;;15.30;86.20;;;;;;5012552;28;20037;-65
2022/10/23 08:46:49;;;;;;;10.30;5.13;;;15.30;86.10;;;;;;4981324;28;20113;-65
2022/10/23 08:49:52;;;;;;;11.57;4.63;;;15.40;86.10;;;;;;5001042;28;20087;-65
2022/10/23 08:52:36;;;;;;;9.65;4.43;;;15.40;86.10;;;;;;4993851;28;20018;-65
2022/10/23 08:55:01;;;;;;;9.90;4.93;;;15.50;86.10;;;;;;4998826;28;20026;-65
2022/10/23 08:57:34;;;;;;;7.50;3.95;;;15.50;86.10;;;;;;4994524;28;20022;-65
2022/10/23 09:00:04;;;;;;;9.68;4.53;;;15.50;86.00;;;;;;5022012;28;20014;-65
2022/10/23 09:02:34;;;;;;;10.03;4.00;;;15.60;86.00;;;;;;5011672;28;20044;-65
2022/10/23 09:05:00;;;;;;;9.13;4.22;;;15.60;85.90;;;;;;5003488;28;20314;-65
2022/10/23 09:07:32;;;;;;;10.02;4.85;;;15.70;86.00;;;;;;4999639;28;20293;-65
2022/10/23 09:10:13;;;;;;;11.23;4.93;;;15.70;85.90;;;;;;4998511;28;20039;-65
2022/10/23 09:12:40;;;;;;;9.57;4.57;;;15.70;85.90;;;;;;5002396;28;20026;-65
2022/10/23 09:15:15;;;;;;;10.13;4.40;;;15.80;85.90;;;;;;5002156;28;20057;-65
2022/10/23 09:17:42;;;;;;;9.18;4.05;;;15.80;85.90;;;;;;5003918;28;20049;-65
2022/10/23 09:20:23;;;;;;;7.85;3.50;;;15.90;85.80;;;;;;4979681;28;20524;-65
2022/10/23 09:22:54;;;;;;;9.95;3.58;;;15.90;85.70;;;;;;4994381;28;20046;-65
2022/10/23 09:25:29;;;;;;;9.98;4.03;;;15.90;85.60;;;;;;5002847;28;20021;-65
2022/10/23 09:27:59;;;;;;;10.30;4.35;;;16.00;85.60;;;;;;5019260;28;20029;-65
2022/10/23 09:30:31;;;;;;;9.23;4.32;;;16.00;85.50;;;;;;5019509;28;20057;-65
2022/10/23 09:32:58;;;;;;;10.93;4.15;;;15.90;85.50;;;;;;5027247;28;20087;-65
2022/10/23 09:35:27;;;;;;;8.35;3.85;;;16.00;85.50;;;;;;5014909;28;20030;-66
2022/10/23 09:37:53;;;;;;;9.63;4.30;;;16.00;85.50;;;;;;5012592;28;20030;-66
2022/10/23 09:40:24;;;;;;;9.93;4.03;;;16.00;85.40;;;;;;5013714;28;20041;-66
2022/10/23 09:42:52;;;;;;;8.77;4.07;;;16.00;85.40;;;;;;5012677;28;20030;-66
2022/10/23 09:45:32;;;;;;;11.68;4.10;;;16.00;85.40;;;;;;5028490;28;20088;-66
2022/10/23 09:48:05;;;;;;;9.30;4.00;;;16.10;85.40;;;;;;5003535;28;20328;-66
2022/10/23 09:50:30;;;;;;;8.05;3.47;;;16.10;85.30;;;;;;5014035;28;20324;-66
2022/10/23 09:52:57;;;;;;;11.18;4.25;;;16.10;85.30;;;;;;5017971;28;20120;-66
2022/10/23 09:55:24;;;;;;;9.38;3.58;;;16.10;85.40;;;;;;5017350;28;20080;-66
2022/10/23 09:57:52;;;;;;;8.85;4.18;;;16.10;85.40;;;;;;5017323;28;20027;-66
2022/10/23 10:00:23;;;;;;;12.75;4.47;;;16.10;85.30;;;;;;5015072;28;20069;-66
2022/10/23 10:03:01;;;;;;;8.27;4.30;;;16.20;85.30;;;;;;5016580;28;20478;-66
2022/10/23 10:05:41;;;;;;;10.85;3.65;;;16.20;85.20;;;;;;5013182;28;20022;-67
2022/10/23 10:08:31;;;;;;;8.60;3.70;;;16.20;85.10;;;;;;5002235;28;20019;-66
2022/10/23 10:11:20;;;;;;;;;;;16.20;85.10;;;;;;5017315;28;20435;-66
2022/10/23 10:14:12;;;;;;;8.70;3.35;;;16.20;85.00;;;;;;5018269;28;19993;-66
2022/10/23 10:16:44;;;;;;;9.48;3.40;;;16.30;85.00;;;;;;5018219;28;20160;-66
2022/10/23 10:19:19;;;;;;;10.95;4.20;;;16.30;84.90;;;;;;5016024;28;20046;-66
2022/10/23 10:21:58;;;;;;;10.77;4.22;;;16.30;84.90;;;;;;5036943;28;20049;-66
2022/10/23 10:25:03;;;;;;;8.75;3.70;;;16.40;84.90;;;;;;5021607;28;20038;-67
2022/10/23 10:27:51;;;;;;;9.75;4.05;;;16.40;84.80;;;;;;5023663;28;20044;-65
2022/10/23 10:30:22;;;;;;;8.52;3.50;;;16.40;84.70;;;;;;5013817;28;20526;-65
2022/10/23 10:33:01;;;;;;;10.95;4.13;;;16.50;84.70;;;;;;5028234;28;20044;-66
2022/10/23 10:35:44;;;;;;;8.35;3.70;;;16.50;84.60;;;;;;5021890;28;20078;-65
2022/10/23 10:38:31;;;;;;;10.32;4.25;;;16.50;84.50;;;;;;5037021;28;20048;-65
2022/10/23 10:41:08;;;;;;;8.05;3.20;;;16.60;84.50;;;;;;5019614;28;20099;-66
2022/10/23 10:43:59;;;;;;;8.10;3.40;;;16.60;84.50;;;;;;5025697;28;20045;-66
2022/10/23 10:46:47;;;;;;;7.35;3.20;;;16.60;84.40;;;;;;5018280;28;20041;-66
2022/10/23 10:49:33;;;;;;;8.18;3.08;;;16.60;84.20;;;;;;5018941;28;20098;-66
2022/10/23 10:52:51;;;;;;;8.05;3.30;;;16.60;84.20;;;;;;5027304;28;20057;-66
2022/10/23 10:55:23;;;;;;;7.37;2.77;;;16.70;84.20;;;;;;4986237;28;20122;-66
2022/10/23 10:58:04;;;;;;;10.88;4.00;;;16.70;84.20;;;;;;5011732;28;20045;-66
2022/10/23 11:00:32;;;;;;;7.68;3.30;;;16.70;84.10;;;;;;4992556;28;20142;-66
2022/10/23 11:03:29;;;;;;;8.57;3.47;;;16.70;84.10;;;;;;5009436;28;20378;-67
2022/10/23 11:05:57;;;;;;;8.35;3.65;;;16.70;84.10;;;;;;5003619;28;20052;-66
2022/10/23 11:08:33;;;;;;;7.93;3.85;;;16.70;84.00;;;;;;4998670;28;20062;-66
2022/10/23 11:11:13;;;;;;;8.25;3.83;;;16.80;83.90;;;;;;4983752;28;20422;-66
2022/10/23 11:13:42;;;;;;;11.57;3.95;;;16.80;83.90;;;;;;5005586;28;20030;-66
2022/10/23 11:16:23;;;;;;;10.05;3.92;;;16.80;83.80;;;;;;5009016;28;20052;-66
2022/10/23 11:19:16;;;;;;;7.50;3.25;;;16.90;83.70;;;;;;4993996;28;20104;-67
2022/10/23 11:22:02;;;;;;;6.85;3.50;;;16.90;83.50;;;;;;5001041;28;20045;-66
2022/10/23 11:24:33;;;;;;;10.35;3.67;;;16.90;83.50;;;;;;5003206;28;20056;-66
2022/10/23 11:27:00;;;;;;;;;;;17.00;83.50;;;;;;4978391;28;20182;-66
2022/10/23 11:29:39;;;;;;;8.13;3.70;;;17.00;83.40;;;;;;4992905;28;19936;-66
2022/10/23 11:32:20;;;;;;;8.52;3.50;;;17.00;83.30;;;;;;5022731;28;20045;-67
2022/10/23 11:34:56;;;;;;;8.13;3.63;;;17.10;83.20;;;;;;5019006;28;20084;-67
2022/10/23 11:37:23;;;;;;;8.50;3.20;;;17.10;83.00;;;;;;5008641;28;20010;-67
2022/10/23 11:40:07;;;;;;;8.93;3.50;;;17.20;82.90;;;;;;5015728;28;20091;-67
2022/10/23 11:42:46;;;;;;;6.65;3.22;;;17.30;82.80;;;;;;5026621;28;20026;-67
2022/10/23 11:45:37;;;;;;;8.20;3.80;;;17.30;82.70;;;;;;5012715;28;20524;-67
2022/10/23 11:48:23;;;;;;;8.15;3.70;;;17.40;82.60;;;;;;5014596;28;20370;-66
2022/10/23 11:50:53;;;;;;;9.88;3.50;;;17.40;82.40;;;;;;5024390;28;20095;-66
2022/10/23 11:53:39;;;;;;;12.18;3.92;;;17.50;82.40;;;;;;5023185;28;20069;-66
2022/10/23 11:56:24;;;;;;;8.77;3.78;;;17.50;82.20;;;;;;5020352;28;20029;-66
2022/10/23 11:58:57;;;;;;;9.30;3.55;;;17.50;82.10;;;;;;5042516;28;20045;-66
2022/10/23 12:01:41;;;;;;;7.10;2.88;;;17.50;82.00;;;;;;5027831;28;20028;-66
2022/10/23 12:04:13;;;;;;;7.95;3.45;;;17.60;82.00;;;;;;5030000;28;20030;-66
2022/10/23 12:07:07;;;;;;;6.88;3.03;;;17.60;81.90;;;;;;5021753;28;20025;-66
2022/10/23 12:09:57;;;;;;;7.63;3.42;;;17.60;81.80;;;;;;5026870;28;20068;-67
2022/10/23 12:12:34;;;;;;;7.45;2.95;;;17.70;81.70;;;;;;5018626;28;20036;-66
2022/10/23 12:15:10;;;;;;;9.40;3.25;;;17.70;81.60;;;;;;5020944;28;20025;-66
2022/10/23 12:17:40;;;;;;;7.53;3.13;;;17.80;81.50;;;;;;5021351;28;20042;-67
2022/10/23 12:20:12;;;;;;;7.85;3.30;;;17.80;81.40;;;;;;5028231;28;20037;-66
2022/10/23 12:22:46;;;;;;;8.32;3.30;;;17.90;81.30;;;;;;5025062;28;20121;-66
2022/10/23 12:25:22;;;;;;;7.97;3.05;;;17.90;81.20;;;;;;5032018;28;20018;-66
2022/10/23 12:28:17;;;;;;;8.75;2.97;;;17.90;81.00;;;;;;5009980;28;20390;-66
2022/10/23 12:31:07;;;;;;;8.75;2.67;;;17.90;81.00;;;;;;5014632;28;20117;-66
2022/10/23 12:34:07;;;;;;;7.22;3.30;;;18.00;80.90;;;;;;5014387;28;20037;-66
2022/10/23 12:36:43;;;;;;;6.15;2.95;;;18.00;80.90;;;;;;5007561;28;20403;-66
2022/10/23 12:39:50;;;;;;;9.85;4.13;;;18.00;80.90;;;;;;5030504;28;20061;-66
2022/10/23 12:42:21;;;;;;;7.50;3.58;;;18.00;80.90;;;;;;5012272;28;20088;-66
2022/10/23 12:44:58;;;;;;;6.75;3.22;;;18.00;80.90;;;;;;5012414;28;20034;-66
2022/10/23 12:47:23;;;;;;;9.57;3.92;;;18.00;80.80;;;;;;5011728;28;20029;-66
2022/10/23 12:49:50;;;;;;;7.47;3.50;;;18.00;80.80;;;;;;4997191;28;20041;-66
2022/10/23 12:52:19;;;;;;;8.98;3.83;;;18.00;80.80;;;;;;4997956;28;20064;-66
2022/10/23 12:54:45;;;;;;;9.88;3.50;;;18.10;80.80;;;;;;5012530;28;20463;-66
2022/10/23 12:57:22;;;;;;;7.55;3.33;;;18.10;80.80;;;;;;4994752;28;20072;-66
2022/10/23 12:59:49;;;;;;;9.50;3.50;;;18.10;80.70;;;;;;5013124;28;20422;-66
2022/10/23 13:02:26;;;;;;;8.48;3.60;;;18.10;80.70;;;;;;5012485;28;20022;-66
2022/10/23 13:04:54;;;;;;;7.80;3.40;;;18.10;80.60;;;;;;4999412;28;20034;-66
2022/10/23 13:07:24;;;;;;;6.90;3.15;;;18.10;80.50;;;;;;5013204;28;20042;-66
2022/10/23 13:09:51;;;;;;;9.40;3.35;;;18.10;80.50;;;;;;5008198;28;20382;-66
2022/10/23 13:12:28;;;;;;;9.45;3.15;;;18.20;80.50;;;;;;5011595;28;20425;-66